Time;durP1;ratioP1;P1;durP2;ratioP2;P2;SDS_P1;SDS_P2;PMS_P1;PMS_P2;Temp;Humidity;BMP_temperature;BMP_pressure;BME280_temperature;BME280_humidity;BME280_pressure;Samples;Min_cycle;Max_cycle;Signal;HPM_P1;HPM_P2
2022/07/14 00:00:24;;;;;;;15.70;3.10;;;15.10;99.90;;;;;;4924786;28;167231;-72
2022/07/14 00:02:50;;;;;;;12.80;2.88;;;15.10;99.90;;;;;;4988864;28;20069;-72
2022/07/14 00:05:16;;;;;;;16.23;3.15;;;15.10;99.90;;;;;;4964500;28;214281;-68
2022/07/14 00:07:42;;;;;;;18.08;3.17;;;15.00;99.90;;;;;;4969429;28;28130;-72
2022/07/14 00:10:08;;;;;;;12.85;2.58;;;15.00;99.90;;;;;;4965143;28;266884;-72
2022/07/14 00:12:35;;;;;;;14.65;2.72;;;14.90;99.90;;;;;;4925955;28;211408;-73
2022/07/14 00:15:01;;;;;;;16.48;3.10;;;15.00;99.90;;;;;;4962489;28;255848;-72
2022/07/14 00:17:27;;;;;;;16.33;3.40;;;14.90;99.90;;;;;;4942624;28;210250;-72
2022/07/14 00:19:53;;;;;;;18.73;3.35;;;14.90;99.90;;;;;;4957866;28;258101;-72
2022/07/14 00:22:19;;;;;;;17.35;3.15;;;14.90;99.90;;;;;;4936636;28;206254;-72
2022/07/14 00:24:46;;;;;;;14.05;2.80;;;14.90;99.90;;;;;;4963872;28;246311;-72
2022/07/14 00:27:12;;;;;;;15.13;3.00;;;14.80;99.90;;;;;;4957050;28;148734;-72
2022/07/14 00:29:38;;;;;;;13.13;2.88;;;14.80;99.90;;;;;;4961504;28;265815;-72
2022/07/14 00:32:06;;;;;;;15.32;2.97;;;14.70;99.90;;;;;;4947734;28;188868;-72
2022/07/14 00:34:33;;;;;;;14.60;2.92;;;14.60;99.90;;;;;;4959946;28;237569;-72
2022/07/14 00:36:59;;;;;;;15.55;3.20;;;14.60;99.90;;;;;;4954279;28;206602;-72
2022/07/14 00:39:26;;;;;;;13.90;2.55;;;14.60;99.90;;;;;;4936628;28;275281;-72
2022/07/14 00:41:52;;;;;;;11.95;2.72;;;14.60;99.90;;;;;;4936022;28;207941;-72
2022/07/14 00:44:19;;;;;;;15.98;3.22;;;14.60;99.90;;;;;;4958497;28;263818;-73
2022/07/14 00:46:45;;;;;;;13.30;2.55;;;14.50;99.90;;;;;;4946448;28;207704;-72
2022/07/14 00:49:11;;;;;;;16.73;2.92;;;14.50;99.90;;;;;;4955436;28;270452;-72
2022/07/14 00:51:37;;;;;;;18.50;3.08;;;14.50;99.90;;;;;;4963958;28;178308;-72
2022/07/14 00:54:03;;;;;;;13.90;3.10;;;14.40;99.90;;;;;;4977524;28;20528;-72
2022/07/14 00:56:29;;;;;;;16.40;3.20;;;14.30;99.90;;;;;;4945755;28;266905;-72
2022/07/14 00:58:55;;;;;;;16.95;2.97;;;14.30;99.90;;;;;;4972610;28;20380;-73
2022/07/14 01:01:22;;;;;;;15.70;2.70;;;14.30;99.90;;;;;;4935998;28;266868;-72
2022/07/14 01:03:48;;;;;;;17.10;2.80;;;14.20;99.90;;;;;;4972277;28;20058;-72
2022/07/14 01:06:14;;;;;;;12.82;2.67;;;14.20;99.90;;;;;;4912428;28;261381;-72
2022/07/14 01:08:40;;;;;;;16.02;2.83;;;14.30;99.90;;;;;;4971450;28;20146;-72
2022/07/14 01:11:08;;;;;;;13.68;2.90;;;14.20;99.90;;;;;;4932757;28;251863;-73
2022/07/14 01:13:35;;;;;;;17.15;3.08;;;14.10;99.90;;;;;;4977262;28;20059;-72
2022/07/14 01:16:02;;;;;;;13.82;2.38;;;14.20;99.90;;;;;;4937904;28;251034;-72
2022/07/14 01:18:28;;;;;;;15.18;2.70;;;14.20;99.90;;;;;;4969976;28;20512;-72
2022/07/14 01:20:54;;;;;;;13.05;2.83;;;14.20;99.90;;;;;;4927220;28;249638;-71
2022/07/14 01:23:21;;;;;;;14.75;2.67;;;14.20;99.90;;;;;;4978901;28;20063;-71
2022/07/14 01:25:47;;;;;;;15.15;2.88;;;14.20;99.90;;;;;;4932515;28;270653;-71
2022/07/14 01:28:13;;;;;;;15.13;2.95;;;14.20;99.90;;;;;;4955722;28;20050;-72
2022/07/14 01:30:39;;;;;;;15.10;3.05;;;14.20;99.90;;;;;;4931129;28;256056;-72
2022/07/14 01:33:05;;;;;;;14.75;2.88;;;14.20;99.90;;;;;;4971483;28;20062;-72
2022/07/14 01:35:31;;;;;;;15.18;2.85;;;14.10;99.90;;;;;;4929303;28;207014;-72
2022/07/14 01:37:57;;;;;;;15.70;3.13;;;14.00;99.90;;;;;;4985961;28;20077;-72
2022/07/14 01:40:23;;;;;;;12.25;2.72;;;14.00;99.90;;;;;;4927278;28;263797;-71
2022/07/14 01:42:50;;;;;;;13.43;3.20;;;14.00;99.90;;;;;;4990659;28;20055;-72
2022/07/14 01:45:16;;;;;;;12.55;3.17;;;14.00;99.90;;;;;;4969473;28;247026;-71
2022/07/14 01:47:42;;;;;;;14.93;2.80;;;14.00;99.90;;;;;;4917843;28;206433;-72
2022/07/14 01:50:09;;;;;;;13.32;3.10;;;14.00;99.90;;;;;;4967895;28;258005;-72
2022/07/14 01:52:35;;;;;;;14.40;3.25;;;13.90;99.90;;;;;;4938368;28;223386;-72
2022/07/14 01:55:01;;;;;;;12.68;3.25;;;13.90;99.90;;;;;;4968028;28;262524;-72
2022/07/14 01:57:27;;;;;;;16.27;3.15;;;13.90;99.90;;;;;;4908642;28;216214;-72
2022/07/14 01:59:54;;;;;;;13.85;2.90;;;13.80;99.90;;;;;;4958199;28;259524;-72
2022/07/14 02:02:20;;;;;;;14.63;3.00;;;13.80;99.90;;;;;;4936144;28;207035;-72
2022/07/14 02:04:46;;;;;;;19.83;3.80;;;13.70;99.90;;;;;;4943228;28;258465;-72
2022/07/14 02:07:12;;;;;;;14.30;3.10;;;13.70;99.90;;;;;;4940365;28;113775;-72
2022/07/14 02:12:23;;;;;;;13.38;3.50;;;13.60;99.90;;;;;;4935621;28;205033;-72
2022/07/14 02:14:49;;;;;;;18.40;3.80;;;13.60;99.90;;;;;;4960628;28;260926;-72
2022/07/14 02:17:15;;;;;;;14.43;3.50;;;13.50;99.90;;;;;;4953383;28;209171;-72
2022/07/14 02:19:41;;;;;;;16.20;3.30;;;13.50;99.90;;;;;;4959803;28;67890;-72
2022/07/14 02:22:08;;;;;;;12.70;3.45;;;13.40;99.90;;;;;;4930538;28;217894;-72
2022/07/14 02:24:35;;;;;;;14.25;3.20;;;13.40;99.90;;;;;;4956910;28;162934;-72
2022/07/14 02:27:01;;;;;;;12.07;3.25;;;13.40;99.90;;;;;;4951174;28;210944;-73
2022/07/14 02:29:27;;;;;;;12.27;3.25;;;13.40;99.90;;;;;;4954918;28;246962;-72
2022/07/14 02:31:54;;;;;;;11.75;3.35;;;13.40;99.90;;;;;;4956876;28;79506;-72
2022/07/14 02:34:20;;;;;;;12.63;3.70;;;13.40;99.90;;;;;;4950869;28;268368;-72
2022/07/14 02:36:47;;;;;;;15.50;3.83;;;13.40;99.90;;;;;;4934031;28;209488;-72
2022/07/14 02:39:14;;;;;;;15.65;4.68;;;13.40;99.90;;;;;;4961764;28;238621;-72
2022/07/14 02:41:43;;;;;;;16.58;3.90;;;13.30;99.90;;;;;;4947966;28;215946;-72
2022/07/14 02:44:09;;;;;;;16.08;3.95;;;13.30;99.90;;;;;;4956443;28;264331;-70
2022/07/14 02:46:36;;;;;;;17.05;3.90;;;13.30;99.90;;;;;;4944062;28;206528;-72
2022/07/14 02:49:03;;;;;;;11.70;3.53;;;13.20;99.90;;;;;;4995097;28;20059;-72
2022/07/14 02:51:29;;;;;;;15.25;4.13;;;13.20;99.90;;;;;;4928497;28;255283;-72
2022/07/14 02:53:55;;;;;;;15.43;4.25;;;13.20;99.90;;;;;;4970675;28;20173;-72
2022/07/14 02:56:21;;;;;;;14.95;4.15;;;13.10;99.90;;;;;;4934388;28;268722;-72
2022/07/14 02:58:48;;;;;;;17.55;4.07;;;13.10;99.90;;;;;;4986619;28;20512;-72
2022/07/14 03:01:14;;;;;;;18.42;4.32;;;13.00;99.90;;;;;;4934498;28;257625;-72
2022/07/14 03:03:40;;;;;;;13.00;4.07;;;13.00;99.90;;;;;;4978759;28;20153;-72
2022/07/14 03:06:15;;;;;;;14.85;3.92;;;12.90;99.90;;;;;;4909222;28;216949;-72
2022/07/14 03:08:42;;;;;;;15.57;4.00;;;12.90;99.90;;;;;;4968949;28;20055;-72
2022/07/14 03:11:08;;;;;;;13.63;3.95;;;12.90;99.90;;;;;;4933637;28;260005;-71
2022/07/14 03:13:35;;;;;;;14.90;4.15;;;12.80;99.90;;;;;;4977480;28;20062;-71
2022/07/14 03:16:03;;;;;;;15.23;3.95;;;12.80;99.90;;;;;;4929706;28;264376;-72
2022/07/14 03:18:29;;;;;;;13.15;4.10;;;12.80;99.90;;;;;;4976793;28;20246;-72
2022/07/14 03:20:56;;;;;;;12.75;4.18;;;12.80;99.90;;;;;;4924284;28;149636;-72
2022/07/14 03:23:22;;;;;;;14.55;4.65;;;12.80;99.90;;;;;;4977601;28;20063;-72
2022/07/14 03:25:49;;;;;;;14.77;4.63;;;12.80;99.90;;;;;;4924261;28;224309;-72
2022/07/14 03:28:15;;;;;;;14.77;4.65;;;12.70;99.90;;;;;;4966382;28;20058;-73
2022/07/14 03:30:42;;;;;;;12.35;4.28;;;12.60;99.90;;;;;;4927361;28;205979;-72
2022/07/14 03:33:08;;;;;;;13.95;3.90;;;12.60;99.90;;;;;;4970389;28;20046;-72
2022/07/14 03:35:41;;;;;;;13.38;4.55;;;12.60;99.90;;;;;;4919629;28;242125;-72
2022/07/14 03:38:07;;;;;;;14.95;4.95;;;12.60;99.90;;;;;;4977663;28;20404;-72
2022/07/14 03:40:34;;;;;;;13.18;4.43;;;12.50;99.90;;;;;;4926053;28;245779;-72
2022/07/14 03:43:01;;;;;;;17.80;4.47;;;12.50;99.90;;;;;;4986674;28;20056;-72
2022/07/14 03:45:27;;;;;;;12.77;4.30;;;12.50;99.90;;;;;;4924647;28;275606;-72
2022/07/14 03:47:53;;;;;;;13.80;4.70;;;12.50;99.90;;;;;;4955402;28;20066;-72
2022/07/14 03:50:20;;;;;;;17.00;4.60;;;12.50;99.90;;;;;;4936813;28;205241;-72
2022/07/14 03:52:46;;;;;;;14.75;4.45;;;12.50;99.90;;;;;;4939372;28;204273;-72
2022/07/14 03:55:13;;;;;;;12.40;4.25;;;12.50;99.90;;;;;;4946223;28;185160;-72
2022/07/14 03:57:39;;;;;;;12.98;4.20;;;12.50;99.90;;;;;;4929356;28;206629;-72
2022/07/14 04:00:06;;;;;;;14.32;4.45;;;12.50;99.90;;;;;;4966451;28;20061;-72
2022/07/14 04:02:32;;;;;;;15.05;4.53;;;12.50;99.90;;;;;;4928043;28;205498;-72
2022/07/14 04:04:58;;;;;;;14.10;4.35;;;12.50;99.90;;;;;;4973261;28;138210;-72
2022/07/14 04:07:24;;;;;;;13.18;4.70;;;12.50;99.90;;;;;;4931841;28;217559;-73
2022/07/14 04:09:50;;;;;;;15.70;4.35;;;12.60;99.90;;;;;;4961195;28;161355;-71
2022/07/14 04:12:16;;;;;;;14.13;4.60;;;12.60;99.90;;;;;;4938770;28;209441;-71
2022/07/14 04:14:42;;;;;;;12.77;4.15;;;12.60;99.90;;;;;;4956879;28;258265;-71
2022/07/14 04:17:09;;;;;;;15.13;4.68;;;12.70;99.90;;;;;;4941156;28;207949;-72
2022/07/14 04:19:35;;;;;;;14.05;4.40;;;12.80;99.90;;;;;;4950321;28;134221;-71
2022/07/14 04:22:01;;;;;;;14.40;4.47;;;12.80;99.90;;;;;;4938474;28;207239;-72
2022/07/14 04:24:27;;;;;;;16.48;4.68;;;12.90;99.90;;;;;;4983970;28;263391;-72
2022/07/14 04:26:53;;;;;;;15.32;4.55;;;12.80;99.90;;;;;;4952317;28;204277;-72
2022/07/14 04:29:19;;;;;;;14.68;4.55;;;12.90;99.90;;;;;;4952579;28;267001;-72
2022/07/14 04:31:46;;;;;;;14.38;4.50;;;12.90;99.90;;;;;;4930601;28;208234;-72
2022/07/14 04:34:12;;;;;;;12.75;4.32;;;13.00;99.90;;;;;;4952441;28;248259;-72
2022/07/14 04:36:38;;;;;;;15.57;4.10;;;13.00;99.90;;;;;;4938231;28;156905;-73
2022/07/14 04:39:06;;;;;;;17.02;4.47;;;13.00;99.90;;;;;;4976956;28;20047;-73
2022/07/14 04:41:35;;;;;;;18.20;4.90;;;13.00;99.90;;;;;;4948061;28;205627;-73
2022/07/14 04:44:01;;;;;;;14.70;5.38;;;13.00;99.90;;;;;;4975963;28;20063;-73
2022/07/14 04:46:27;;;;;;;14.43;4.82;;;13.10;99.90;;;;;;4931254;28;275396;-72
2022/07/14 04:54:23;;;;;;;16.87;4.70;;;13.00;99.90;;;;;;4954334;28;271474;-72
2022/07/14 04:56:49;;;;;;;14.50;4.60;;;13.00;99.90;;;;;;4927889;28;208807;-72
2022/07/14 04:59:15;;;;;;;13.40;4.88;;;13.10;99.90;;;;;;4944305;28;256471;-72
2022/07/14 05:01:41;;;;;;;13.88;4.65;;;13.10;99.90;;;;;;4947427;28;209704;-72
2022/07/14 05:04:08;;;;;;;13.63;4.90;;;13.20;99.90;;;;;;4968826;28;20058;-72
2022/07/14 05:06:34;;;;;;;13.68;4.80;;;13.20;99.90;;;;;;4917650;28;205878;-72
2022/07/14 05:09:00;;;;;;;13.55;4.70;;;13.20;99.90;;;;;;4962285;28;20054;-72
2022/07/14 05:11:26;;;;;;;11.35;4.28;;;13.30;99.90;;;;;;4938770;28;273207;-72
2022/07/14 05:13:55;;;;;;;14.20;4.22;;;13.30;99.90;;;;;;4966723;28;20464;-72
2022/07/14 05:16:22;;;;;;;12.25;4.60;;;13.50;99.90;;;;;;4930547;28;265964;-71
2022/07/14 05:18:49;;;;;;;11.93;3.83;;;13.40;99.90;;;;;;4972339;28;20041;-71
2022/07/14 05:21:15;;;;;;;11.57;3.60;;;13.50;99.90;;;;;;4911713;28;232008;-71
2022/07/14 05:23:41;;;;;;;14.68;4.20;;;13.60;99.90;;;;;;4974801;28;20392;-71
2022/07/14 05:26:11;;;;;;;12.00;3.53;;;13.70;99.90;;;;;;4938148;28;250434;-71
2022/07/14 05:28:37;;;;;;;11.70;3.40;;;13.80;99.90;;;;;;4981918;28;20038;-73
2022/07/14 05:31:04;;;;;;;11.60;3.60;;;13.90;99.90;;;;;;4905629;28;254948;-73
2022/07/14 05:33:30;;;;;;;11.13;3.30;;;13.90;99.90;;;;;;4982059;28;20051;-73
2022/07/14 05:35:57;;;;;;;12.68;3.72;;;14.00;99.90;;;;;;4928597;28;253547;-73
2022/07/14 05:38:23;;;;;;;12.05;3.25;;;14.00;99.90;;;;;;4973970;28;20053;-73
2022/07/14 05:40:50;;;;;;;13.38;3.20;;;14.10;99.90;;;;;;4921383;28;258180;-72
2022/07/14 05:43:18;;;;;;;13.27;3.13;;;14.20;99.90;;;;;;4984976;28;20051;-71
2022/07/14 05:45:46;;;;;;;12.73;3.55;;;14.30;99.90;;;;;;4927819;28;207210;-70
2022/07/14 05:48:12;;;;;;;11.32;3.28;;;14.30;99.90;;;;;;4957507;28;20492;-71
2022/07/14 05:50:38;;;;;;;11.88;3.33;;;14.40;99.90;;;;;;4919986;28;214660;-70
2022/07/14 05:53:04;;;;;;;12.63;3.10;;;14.50;99.90;;;;;;4978541;28;20073;-71
2022/07/14 05:55:31;;;;;;;10.27;3.00;;;14.70;99.90;;;;;;4923168;28;268885;-71
2022/07/14 05:57:57;;;;;;;12.63;2.97;;;14.80;99.90;;;;;;4969700;28;20066;-71
2022/07/14 06:00:23;;;;;;;12.82;2.50;;;14.90;99.90;;;;;;4913370;28;270358;-70
2022/07/14 06:02:49;;;;;;;13.30;2.55;;;15.20;99.90;;;;;;4980981;28;20074;-72
2022/07/14 06:05:15;;;;;;;12.13;2.50;;;15.40;99.90;;;;;;4951603;28;261469;-71
2022/07/14 06:07:41;;;;;;;13.02;2.33;;;15.50;99.90;;;;;;4899843;28;408028;-71
2022/07/14 06:10:11;;;;;;;10.60;1.90;;;15.80;99.90;;;;;;4975358;28;20049;-72
2022/07/14 06:12:37;;;;;;;11.63;2.30;;;16.00;99.90;;;;;;4929437;28;215689;-71
2022/07/14 06:15:05;;;;;;;12.68;2.25;;;16.30;99.90;;;;;;4969356;28;20049;-72
2022/07/14 06:17:31;;;;;;;12.77;2.00;;;16.40;99.90;;;;;;4930815;28;186010;-71
2022/07/14 06:20:05;;;;;;;10.30;1.75;;;16.60;99.90;;;;;;4969784;28;252495;-71
2022/07/14 06:22:33;;;;;;;11.05;1.73;;;16.70;99.90;;;;;;4931322;28;206285;-72
2022/07/14 06:24:59;;;;;;;9.98;1.45;;;16.80;99.90;;;;;;4963890;28;261524;-72
2022/07/14 06:27:27;;;;;;;12.45;1.98;;;17.00;99.90;;;;;;4936784;28;205773;-73
2022/07/14 06:29:54;;;;;;;10.75;1.65;;;17.10;99.90;;;;;;4959304;28;210623;-72
2022/07/14 06:32:20;;;;;;;13.05;1.60;;;17.20;99.90;;;;;;4929206;28;204663;-72
2022/07/14 06:34:47;;;;;;;9.73;1.60;;;17.40;99.90;;;;;;4959134;28;259704;-72
2022/07/14 06:37:13;;;;;;;10.30;1.48;;;17.70;99.90;;;;;;4931467;28;205808;-73
2022/07/14 06:39:40;;;;;;;11.32;1.65;;;17.80;99.90;;;;;;4956592;28;156754;-72
2022/07/14 06:42:07;;;;;;;9.77;1.40;;;18.00;99.90;;;;;;4928890;28;206519;-72
2022/07/14 06:44:33;;;;;;;10.00;1.60;;;18.00;99.90;;;;;;4957544;28;265988;-72
2022/07/14 06:47:01;;;;;;;9.57;1.50;;;18.10;99.90;;;;;;4923545;28;210548;-72
2022/07/14 06:49:27;;;;;;;9.13;1.33;;;18.20;99.90;;;;;;4957004;28;250547;-72
2022/07/14 06:51:54;;;;;;;12.77;1.45;;;18.50;99.90;;;;;;4954205;28;206538;-72
2022/07/14 06:54:20;;;;;;;9.60;1.58;;;18.40;99.90;;;;;;4954891;28;264792;-72
2022/07/14 06:56:46;;;;;;;7.15;1.25;;;18.50;99.90;;;;;;4942641;28;210465;-72
2022/07/14 06:59:12;;;;;;;8.75;1.30;;;18.50;99.90;;;;;;4943087;28;248572;-73
2022/07/14 07:01:38;;;;;;;9.23;1.20;;;18.50;99.90;;;;;;4951002;28;206946;-73
2022/07/14 07:04:06;;;;;;;10.05;1.50;;;18.40;99.90;;;;;;4973085;28;20519;-75
2022/07/14 07:06:44;;;;;;;8.70;1.05;;;18.30;99.90;;;;;;4899723;28;254990;-74
2022/07/14 07:09:12;;;;;;;9.60;1.48;;;18.50;99.90;;;;;;4951089;28;320693;-73
2022/07/14 07:11:38;;;;;;;7.05;1.00;;;18.60;99.90;;;;;;4957263;28;210000;-74
2022/07/14 07:14:05;;;;;;;7.40;1.20;;;18.60;99.90;;;;;;4977909;28;20050;-73
2022/07/14 07:16:31;;;;;;;9.35;1.40;;;18.80;99.90;;;;;;4946682;28;216211;-73
2022/07/14 07:18:57;;;;;;;6.30;1.10;;;18.80;99.90;;;;;;4974298;28;20066;-74
2022/07/14 07:21:24;;;;;;;10.23;1.25;;;18.70;99.90;;;;;;4921638;28;206308;-73
2022/07/14 07:23:51;;;;;;;10.65;1.27;;;18.50;99.90;;;;;;4968524;28;20054;-73
2022/07/14 07:26:20;;;;;;;9.98;1.20;;;18.40;99.90;;;;;;4927409;28;263356;-73
2022/07/14 07:28:47;;;;;;;8.65;1.40;;;18.40;99.90;;;;;;4965064;28;20059;-74
2022/07/14 07:31:13;;;;;;;10.32;1.35;;;18.80;99.90;;;;;;4934798;28;267759;-73
2022/07/14 07:33:40;;;;;;;7.72;1.00;;;19.00;99.90;;;;;;4960754;28;20051;-73
2022/07/14 07:36:06;;;;;;;12.05;1.60;;;19.10;99.90;;;;;;4930140;28;255603;-73
2022/07/14 07:38:33;;;;;;;6.50;1.00;;;19.30;99.90;;;;;;4963920;28;20058;-74
2022/07/14 07:41:01;;;;;;;10.02;1.27;;;19.60;99.90;;;;;;4921507;28;205006;-74
2022/07/14 07:43:27;;;;;;;6.85;1.15;;;20.10;99.90;;;;;;4975309;28;20085;-74
2022/07/14 07:45:53;;;;;;;7.13;0.98;;;20.70;99.90;;;;;;4922816;28;206216;-74
2022/07/14 07:48:20;;;;;;;9.95;1.30;;;21.20;99.90;;;;;;4966893;28;20043;-74
2022/07/14 07:50:46;;;;;;;6.68;1.00;;;21.40;99.20;;;;;;4931566;28;252097;-73
2022/07/14 07:53:13;;;;;;;5.43;1.10;;;21.10;96.50;;;;;;4973969;28;20047;-73
2022/07/14 07:55:39;;;;;;;7.60;1.15;;;20.60;97.10;;;;;;4921319;28;206734;-73
2022/07/14 07:58:07;;;;;;;7.55;1.00;;;20.10;95.70;;;;;;4968643;28;20496;-74
2022/07/14 08:00:34;;;;;;;5.20;0.90;;;19.90;97.50;;;;;;4912759;28;257148;-73
2022/07/14 08:03:02;;;;;;;6.57;1.00;;;20.20;97.60;;;;;;4996925;28;20042;-73
2022/07/14 08:05:29;;;;;;;8.88;1.17;;;20.50;96.80;;;;;;4915309;28;291783;-75
2022/07/14 08:07:56;;;;;;;7.85;1.02;;;20.70;96.80;;;;;;4989428;28;20043;-74
2022/07/14 08:10:23;;;;;;;8.10;1.00;;;20.70;96.10;;;;;;4918630;28;220387;-75
2022/07/14 08:12:50;;;;;;;6.32;0.90;;;21.10;97.10;;;;;;4983179;28;20047;-73
2022/07/14 08:15:17;;;;;;;9.30;1.30;;;21.00;94.80;;;;;;4961091;28;120939;-70
2022/07/14 08:17:44;;;;;;;6.07;0.88;;;21.30;94.80;;;;;;4930782;28;210460;-73
2022/07/14 08:20:10;;;;;;;7.28;1.08;;;21.60;94.50;;;;;;4961676;28;261477;-73
2022/07/14 08:22:38;;;;;;;8.50;1.15;;;21.80;92.50;;;;;;4936686;28;212661;-74
2022/07/14 08:25:08;;;;;;;7.20;0.90;;;22.00;93.60;;;;;;4968342;28;262340;-74
2022/07/14 08:27:35;;;;;;;9.90;1.27;;;22.50;94.00;;;;;;4947122;28;207116;-74
2022/07/14 08:30:02;;;;;;;9.75;1.25;;;22.80;93.60;;;;;;4962963;28;95847;-74
2022/07/14 08:32:47;;;;;;;6.70;1.02;;;23.00;92.10;;;;;;4945824;28;214002;-74
2022/07/14 08:35:15;;;;;;;7.43;1.00;;;23.10;88.50;;;;;;4964828;28;282238;-74
2022/07/14 08:37:41;;;;;;;7.40;1.10;;;23.20;90.50;;;;;;4941608;28;265858;-74
2022/07/14 08:40:10;;;;;;;8.05;1.00;;;22.90;86.00;;;;;;4963584;28;20105;-74
2022/07/14 08:42:41;;;;;;;7.80;1.08;;;22.80;89.30;;;;;;4948970;28;205659;-74
2022/07/14 08:45:10;;;;;;;8.27;1.35;;;22.70;86.40;;;;;;4972341;28;270596;-74
2022/07/14 08:47:36;;;;;;;6.28;0.90;;;22.60;88.60;;;;;;4936339;28;167614;-74
2022/07/14 08:50:05;;;;;;;6.97;0.90;;;22.60;87.90;;;;;;4968045;28;261397;-74
2022/07/14 08:52:32;;;;;;;6.35;1.00;;;22.40;83.50;;;;;;4954245;28;207351;-74
2022/07/14 08:54:59;;;;;;;6.55;1.13;;;22.10;87.10;;;;;;4966390;28;268023;-73
2022/07/14 08:57:26;;;;;;;4.97;0.88;;;22.30;86.10;;;;;;4943525;28;206676;-74
2022/07/14 08:59:53;;;;;;;6.47;1.00;;;22.40;85.80;;;;;;4959850;28;272409;-71
2022/07/14 09:02:19;;;;;;;6.63;0.98;;;22.40;85.20;;;;;;4940161;28;205202;-71
2022/07/14 09:04:46;;;;;;;8.00;0.88;;;22.60;83.90;;;;;;4947829;28;143035;-70
2022/07/14 09:07:32;;;;;;;7.22;1.10;;;22.60;84.40;;;;;;4933337;28;212782;-71
2022/07/14 09:10:10;;;;;;;6.00;1.10;;;22.60;84.00;;;;;;4966950;28;259081;-71
2022/07/14 09:12:37;;;;;;;5.97;1.00;;;22.60;83.10;;;;;;4948743;28;148149;-71
2022/07/14 09:17:53;;;;;;;6.45;0.90;;;22.30;85.40;;;;;;4932592;28;205352;-72
2022/07/14 09:20:20;;;;;;;4.93;0.80;;;22.10;84.70;;;;;;4940122;28;209582;-70
2022/07/14 09:22:47;;;;;;;5.00;0.90;;;21.90;83.70;;;;;;4978055;28;207085;-72
2022/07/14 09:25:16;;;;;;;8.27;1.00;;;21.70;81.90;;;;;;4969079;28;161392;-72
2022/07/14 09:27:47;;;;;;;4.45;0.80;;;21.60;80.30;;;;;;4917986;28;213979;-71
2022/07/14 09:30:15;;;;;;;6.65;0.95;;;21.60;82.10;;;;;;4968293;28;111507;-72
2022/07/14 09:32:46;;;;;;;6.38;0.98;;;21.90;82.70;;;;;;4942422;28;113881;-70
2022/07/14 09:35:15;;;;;;;5.75;0.90;;;22.30;82.10;;;;;;4966463;28;213621;-70
2022/07/14 09:37:42;;;;;;;7.10;1.00;;;22.60;82.00;;;;;;4941845;28;270098;-71
2022/07/14 09:40:13;;;;;;;6.20;0.90;;;22.80;80.90;;;;;;4987266;28;93077;-74
2022/07/14 09:43:02;;;;;;;6.15;0.80;;;23.10;82.60;;;;;;4940896;28;212774;-72
2022/07/14 09:45:36;;;;;;;8.15;1.17;;;23.50;80.40;;;;;;4922087;28;206065;-73
2022/07/14 09:48:11;;;;;;;11.43;0.88;;;23.70;80.90;;;;;;4961780;28;20053;-73
2022/07/14 09:51:05;;;;;;;6.18;0.90;;;24.00;78.40;;;;;;4926782;28;206008;-73
2022/07/14 09:53:34;;;;;;;5.50;0.90;;;23.80;74.80;;;;;;4968985;28;20051;-73
2022/07/14 09:56:08;;;;;;;3.65;0.75;;;23.40;75.40;;;;;;4926494;28;208654;-72
2022/07/14 09:58:51;;;;;;;6.00;0.77;;;23.30;75.80;;;;;;4967809;28;20974;-72
2022/07/14 10:01:21;;;;;;;5.47;0.90;;;23.20;76.00;;;;;;4917976;28;197155;-72
2022/07/14 10:03:49;;;;;;;6.35;1.00;;;23.00;75.40;;;;;;4979026;28;20469;-72
2022/07/14 10:06:16;;;;;;;5.93;1.00;;;23.00;75.50;;;;;;4916196;28;220695;-72
2022/07/14 10:08:46;;;;;;;6.22;0.88;;;22.90;77.40;;;;;;4976059;28;20067;-73
2022/07/14 10:11:12;;;;;;;4.82;0.88;;;23.10;78.00;;;;;;4922235;28;205862;-71
2022/07/14 10:13:39;;;;;;;6.65;1.00;;;23.30;76.70;;;;;;4972761;28;20051;-72
2022/07/14 10:16:06;;;;;;;4.78;0.93;;;23.10;77.60;;;;;;4925742;28;210670;-71
2022/07/14 10:18:33;;;;;;;7.57;0.98;;;23.30;78.30;;;;;;4974543;28;20062;-72
2022/07/14 10:21:01;;;;;;;8.98;1.15;;;23.50;77.30;;;;;;4920938;28;221017;-71
2022/07/14 10:23:29;;;;;;;5.82;0.90;;;23.70;76.70;;;;;;4971060;28;20440;-71
2022/07/14 10:25:58;;;;;;;5.05;0.80;;;23.30;74.60;;;;;;4928243;28;267400;-71
2022/07/14 10:28:24;;;;;;;7.45;0.90;;;23.30;76.80;;;;;;4969523;28;20059;-72
2022/07/14 10:31:22;;;;;;;7.55;1.08;;;23.50;77.40;;;;;;4936161;28;264379;-71
2022/07/14 10:34:26;;;;;;;5.43;0.80;;;22.70;77.00;;;;;;4958797;28;20055;-71
2022/07/14 10:37:30;;;;;;;8.75;1.20;;;22.60;77.40;;;;;;4924101;28;210558;-71
2022/07/14 10:40:08;;;;;;;6.05;0.93;;;22.60;79.60;;;;;;4962310;28;271693;-71
2022/07/14 10:43:14;;;;;;;6.63;1.00;;;22.60;78.40;;;;;;4945704;28;208147;-71
2022/07/14 10:45:51;;;;;;;6.57;0.90;;;22.60;77.30;;;;;;4919123;28;263366;-71
2022/07/14 10:48:33;;;;;;;5.47;1.10;;;22.40;78.70;;;;;;4972981;28;20050;-71
2022/07/14 10:51:26;;;;;;;6.75;0.88;;;22.60;78.60;;;;;;4937161;28;262284;-71
2022/07/14 10:54:08;;;;;;;7.13;1.00;;;22.60;77.50;;;;;;4973702;28;20051;-72
2022/07/14 10:56:36;;;;;;;8.20;1.00;;;22.70;76.70;;;;;;4931445;28;206140;-71
2022/07/14 10:59:29;;;;;;;7.57;1.00;;;22.80;78.90;;;;;;4968550;28;20054;-71
2022/07/14 11:02:11;;;;;;;8.15;1.00;;;23.00;76.60;;;;;;4904263;28;212881;-70
2022/07/14 11:04:58;;;;;;;5.82;1.00;;;22.90;76.70;;;;;;4946408;28;151808;-72
2022/07/14 11:07:40;;;;;;;7.68;1.17;;;22.70;76.20;;;;;;4945274;28;212293;-71
2022/07/14 11:10:14;;;;;;;8.27;0.93;;;22.30;77.40;;;;;;4964648;28;269703;-71
2022/07/14 11:12:59;;;;;;;8.90;1.08;;;22.20;78.30;;;;;;4950227;28;122952;-71
2022/07/14 11:15:50;;;;;;;7.55;1.00;;;22.30;78.10;;;;;;4921261;28;206095;-70
2022/07/14 11:18:24;;;;;;;6.07;1.10;;;22.30;79.90;;;;;;4986842;28;20050;-71
2022/07/14 11:20:56;;;;;;;7.20;1.20;;;22.40;78.70;;;;;;4921077;28;270293;-71
2022/07/14 11:23:50;;;;;;;6.55;0.95;;;22.30;78.90;;;;;;4971601;28;20412;-71
2022/07/14 11:26:46;;;;;;;5.03;0.90;;;22.40;80.40;;;;;;4916197;28;205986;-70
2022/07/14 11:29:13;;;;;;;5.32;0.90;;;22.00;80.30;;;;;;4945703;28;275460;-71
2022/07/14 11:31:44;;;;;;;7.03;1.08;;;21.90;82.60;;;;;;4912151;28;209490;-72
2022/07/14 11:37:13;;;;;;;7.53;1.10;;;22.00;81.60;;;;;;4954766;28;141536;-71
2022/07/14 11:39:41;;;;;;;5.05;0.82;;;22.00;82.80;;;;;;4959564;28;278171;-71
2022/07/14 11:42:12;;;;;;;8.27;1.00;;;22.00;82.80;;;;;;4955724;28;212476;-70
2022/07/14 11:44:38;;;;;;;;;;;22.20;81.80;;;;;;4960118;28;153656;-71
2022/07/14 11:47:15;;;;;;;7.63;0.95;;;22.20;82.90;;;;;;4939533;28;206528;-71
2022/07/14 11:49:50;;;;;;;9.05;1.15;;;22.70;84.50;;;;;;4961354;28;273807;-71
2022/07/14 11:52:23;;;;;;;6.70;0.95;;;23.50;79.30;;;;;;4929319;28;205825;-73
2022/07/14 11:54:53;;;;;;;7.07;1.00;;;24.00;79.90;;;;;;4973187;28;263866;-73
2022/07/14 11:57:21;;;;;;;5.03;0.90;;;24.40;75.00;;;;;;4946104;28;206350;-72
2022/07/14 11:59:47;;;;;;;6.82;1.00;;;24.00;76.40;;;;;;4969544;28;261425;-72
2022/07/14 12:02:18;;;;;;;6.15;1.00;;;23.60;74.00;;;;;;4969875;28;141586;-72
2022/07/14 12:04:47;;;;;;;;;;;23.20;74.80;;;;;;4971048;28;192242;-73
2022/07/14 12:07:13;;;;;;;9.20;1.10;;;23.10;74.80;;;;;;4967501;28;208526;-71
2022/07/14 12:09:40;;;;;;;7.07;0.93;;;23.40;75.80;;;;;;4961060;28;262081;-72
2022/07/14 12:12:06;;;;;;;7.10;0.93;;;23.40;74.00;;;;;;4936134;28;210289;-72
2022/07/14 12:14:42;;;;;;;6.50;1.20;;;23.70;74.80;;;;;;4970807;28;226823;-73
2022/07/14 12:17:08;;;;;;;5.82;1.00;;;24.10;71.40;;;;;;4949174;28;181089;-72
2022/07/14 12:19:34;;;;;;;6.78;0.80;;;24.10;71.20;;;;;;4958264;28;277126;-72
2022/07/14 12:22:03;;;;;;;9.52;1.00;;;23.70;68.80;;;;;;4957571;28;211739;-72
2022/07/14 12:24:30;;;;;;;8.30;1.20;;;23.30;70.70;;;;;;4963977;28;267190;-72
2022/07/14 12:26:59;;;;;;;6.15;0.93;;;22.90;72.00;;;;;;4946361;28;206537;-72
2022/07/14 12:29:27;;;;;;;8.77;1.00;;;22.70;72.90;;;;;;4967173;28;260894;-72
2022/07/14 12:31:53;;;;;;;7.70;1.17;;;22.40;74.40;;;;;;4939204;28;205172;-72
2022/07/14 12:34:20;;;;;;;6.18;0.90;;;21.90;75.10;;;;;;4964188;28;268755;-72
2022/07/14 12:36:48;;;;;;;5.47;0.90;;;21.80;75.90;;;;;;4942861;28;210550;-71
2022/07/14 12:39:16;;;;;;;6.72;0.90;;;22.00;76.20;;;;;;4952162;28;253106;-71
2022/07/14 12:41:45;;;;;;;6.43;1.00;;;22.30;76.80;;;;;;4940479;28;117960;-70
2022/07/14 12:44:11;;;;;;;7.25;1.10;;;22.50;76.10;;;;;;4955398;28;258545;-70
2022/07/14 12:46:37;;;;;;;5.00;1.00;;;22.50;75.80;;;;;;4949485;28;206178;-71
2022/07/14 12:49:06;;;;;;;6.82;1.13;;;22.30;74.20;;;;;;4978317;28;20042;-71
2022/07/14 12:51:39;;;;;;;6.25;1.20;;;21.70;75.10;;;;;;4942543;28;66072;-70
2022/07/14 12:54:17;;;;;;;9.00;1.00;;;21.80;74.70;;;;;;4971457;28;20050;-71
2022/07/14 12:56:45;;;;;;;6.25;0.90;;;21.80;75.20;;;;;;4914134;28;207865;-71